Mount Princeton, Colorado
Current Conditions -  °F | °C
As of 9:34 PM on Saturday 20 Dec 2014 (Local Time) from K7BM Reporting Station
Overcast Overcast  
Wind Chill: -4°   Ceiling: 2900
Heat Index: -1°   Visibility: 10mi
Dew Point: -8°   Wind: 6mph
Humidity: 60%   Direction: 320°NW
Pressure: 29.98"   Gusts: 24mph
Location:  38.7194°N, 106.276°W
Report Text: K7BM 210434Z AUTO 32005G21KT 10SM BKN029 BKN035 OVC050 M01/M08 A2998 RMK AO2
Loading
Personal Weather Stations






























Interactive Weather Map New forecast layout! Learn more

10-Day Weather Forecast

Advertisements
Track Severe Weather on mobile